Time;durP1;ratioP1;P1;durP2;ratioP2;P2;SDS_P1;SDS_P2;PMS_P1;PMS_P2;Temp;Humidity;BMP_temperature;BMP_pressure;BME280_temperature;BME280_humidity;BME280_pressure;Samples;Min_cycle;Max_cycle;Signal;HPM_P1;HPM_P2
2021/01/03 00:00:23;;;;;;;51.13;19.80;;;;;;;-0.35;87.50;101102.16;1660741;86;21576;-78
2021/01/03 00:02:51;;;;;;;61.18;22.82;;;;;;;-0.37;87.48;101089.80;1658721;86;21122;-78
2021/01/03 00:05:22;;;;;;;58.83;22.77;;;;;;;-0.37;87.53;101096.16;1660268;84;21918;-78
2021/01/03 00:07:48;;;;;;;59.88;22.77;;;;;;;-0.39;87.50;101093.96;1645774;86;21907;-78
2021/01/03 00:10:15;;;;;;;75.42;26.25;;;;;;;-0.42;87.46;101090.91;1660839;85;21114;-78
2021/01/03 00:12:40;;;;;;;;;;;;;;;-0.44;87.50;101083.64;1661337;84;21131;-78
2021/01/03 00:15:12;;;;;;;68.28;23.85;;;;;;;-0.45;87.50;101073.42;1660057;85;20213;-78
2021/01/03 00:17:39;;;;;;;54.63;21.55;;;;;;;-0.45;87.52;101075.55;1658796;84;22549;-78
2021/01/03 00:20:10;;;;;;;63.73;22.95;;;;;;;-0.48;87.48;101061.47;1655208;86;21219;-78
2021/01/03 00:22:37;;;;;;;68.12;24.55;;;;;;;-0.50;87.50;101053.34;1655634;84;21213;-78
2021/01/03 00:25:08;;;;;;;47.60;18.45;;;;;;;-0.52;87.51;101046.10;1655076;84;21202;-78
2021/01/03 00:27:38;;;;;;;66.70;24.15;;;;;;;-0.54;87.49;101042.64;1655351;86;21222;-78
2021/01/03 00:30:09;;;;;;;57.85;21.02;;;;;;;-0.55;87.51;101043.45;1658069;86;22789;-78
2021/01/03 00:32:40;;;;;;;42.38;17.52;;;;;;;-0.56;87.52;101044.27;1658958;84;21253;-78
2021/01/03 00:35:12;;;;;;;57.55;21.05;;;;;;;-0.58;87.55;101050.96;1659357;86;21226;-78
2021/01/03 00:37:40;;;;;;;60.35;21.93;;;;;;;-0.60;87.50;101052.58;1640710;84;21713;-78
2021/01/03 00:40:10;;;;;;;53.65;21.05;;;;;;;-0.62;87.53;101057.61;1650633;84;21157;-78
2021/01/03 00:42:37;;;;;;;55.00;20.75;;;;;;;-0.61;87.58;101064.81;1658419;85;21219;-78
2021/01/03 00:45:07;;;;;;;52.00;20.77;;;;;;;-0.57;87.65;101067.53;1651864;85;21432;-78
2021/01/03 00:47:38;;;;;;;48.23;19.07;;;;;;;-0.54;87.63;101073.12;1645967;86;21242;-78
2021/01/03 00:50:08;;;;;;;51.77;19.57;;;;;;;-0.55;87.58;101070.98;1659329;84;21207;-78
2021/01/03 00:52:35;;;;;;;60.78;20.90;;;;;;;-0.55;87.56;101065.91;1644748;86;22328;-78
2021/01/03 00:55:06;;;;;;;47.95;17.80;;;;;;;-0.56;87.54;101062.04;1658739;85;21681;-78
2021/01/03 00:57:35;;;;;;;45.95;16.50;;;;;;;-0.57;87.51;101067.53;1660082;85;21205;-78
2021/01/03 01:00:01;;;;;;;52.08;18.90;;;;;;;-0.59;87.53;101066.61;1653427;85;21487;-78
2021/01/03 01:02:27;;;;;;;59.13;21.90;;;;;;;-0.59;87.58;101068.28;1653764;86;21253;-78
2021/01/03 01:04:56;;;;;;;63.60;22.67;;;;;;;-0.59;87.57;101069.14;1653970;86;21499;-78
2021/01/03 01:07:25;;;;;;;60.98;22.48;;;;;;;-0.59;87.58;101074.22;1652812;85;21690;-78
2021/01/03 01:09:51;;;;;;;66.33;23.55;;;;;;;-0.59;87.61;101070.82;1653007;86;21502;-77
2021/01/03 01:12:17;;;;;;;54.77;19.87;;;;;;;-0.57;87.65;101071.34;1643850;86;21221;-77
2021/01/03 01:14:47;;;;;;;74.17;26.93;;;;;;;-0.55;87.65;101076.47;1657269;86;21416;-78
2021/01/03 01:17:14;;;;;;;63.45;21.60;;;;;;;-0.56;87.59;101067.98;1631515;86;22116;-79
2021/01/03 01:19:43;;;;;;;74.65;25.68;;;;;;;-0.56;87.62;101066.72;1645994;85;21230;-78
2021/01/03 01:22:08;;;;;;;72.03;25.40;;;;;;;-0.57;87.59;101060.31;1633353;86;21287;-78
2021/01/03 01:24:37;;;;;;;74.97;26.65;;;;;;;-0.58;87.58;101058.58;1653720;86;21610;-78
2021/01/03 01:27:04;;;;;;;67.03;24.85;;;;;;;-0.61;87.59;101055.52;1652304;85;21219;-78
2021/01/03 01:29:32;;;;;;;69.85;24.40;;;;;;;-0.59;87.62;101061.93;1653757;86;21709;-78
2021/01/03 01:32:03;;;;;;;82.60;27.05;;;;;;;-0.59;87.65;101056.45;1635124;86;21343;-78
2021/01/03 01:34:29;;;;;;;72.17;25.27;;;;;;;-0.59;87.63;101058.13;1653905;86;21214;-78
2021/01/03 01:36:59;;;;;;;66.62;22.80;;;;;;;-0.60;87.64;101060.20;1653899;85;21644;-78
2021/01/03 01:39:29;;;;;;;77.65;26.85;;;;;;;-0.59;87.67;101057.72;1651106;86;21126;-78
2021/01/03 01:41:53;;;;;;;78.80;26.40;;;;;;;-0.59;87.64;101060.66;1655287;86;21130;-78
2021/01/03 01:44:19;;;;;;;73.70;23.60;;;;;;;-0.59;87.67;101064.06;1655842;86;21861;-78
2021/01/03 01:47:24;;;;;;;71.02;24.10;;;;;;;-0.58;87.68;101061.13;1647962;85;20930;-78
2021/01/03 01:49:54;;;;;;;91.55;27.90;;;;;;;-0.57;87.70;101057.77;1655672;86;21131;-78
2021/01/03 01:52:22;;;;;;;80.75;26.90;;;;;;;-0.58;87.66;101054.77;1655494;86;21132;-78
2021/01/03 01:54:59;;;;;;;73.95;25.52;;;;;;;-0.59;87.65;101047.96;1655648;86;21148;-78
2021/01/03 01:57:43;;;;;;;91.95;26.12;;;;;;;-0.59;87.62;101047.56;1652714;85;22198;-78
2021/01/03 02:00:22;;;;;;;88.27;27.73;;;;;;;-0.60;87.70;101051.31;1639547;85;21144;-78
2021/01/03 02:03:13;;;;;;;77.75;26.87;;;;;;;-0.58;87.71;101050.56;1659731;85;21031;-79
2021/01/03 02:06:11;;;;;;;78.33;25.65;;;;;;;-0.57;87.71;101046.34;1659123;85;21202;-78
2021/01/03 02:08:45;;;;;;;88.80;27.75;;;;;;;-0.57;87.71;101056.09;1596441;88;21210;-78
2021/01/03 02:11:18;;;;;;;78.87;27.40;;;;;;;-0.57;87.70;101045.94;1568243;90;21268;-77
2021/01/03 02:13:49;;;;;;;84.03;28.47;;;;;;;-0.55;87.72;101048.53;1580866;89;21217;-78
2021/01/03 02:16:20;;;;;;;89.07;29.60;;;;;;;-0.52;87.77;101052.45;1578979;89;21612;-78
2021/01/03 02:18:48;;;;;;;89.20;27.62;;;;;;;-0.50;87.76;101045.72;1581686;89;21198;-78
2021/01/03 02:21:46;;;;;;;93.70;28.32;;;;;;;-0.50;87.72;101043.18;1580155;90;21249;-78
2021/01/03 02:24:42;;;;;;;90.35;27.37;;;;;;;-0.48;87.74;101044.09;1576883;89;21443;-78
2021/01/03 02:27:48;;;;;;;92.88;30.12;;;;;;;-0.47;87.73;101039.48;1554496;92;21848;-78
2021/01/03 02:30:18;;;;;;;90.92;28.47;;;;;;;-0.48;87.72;101034.80;1554775;92;21292;-78
2021/01/03 02:32:50;;;;;;;107.25;31.12;;;;;;;-0.48;87.70;101036.07;1560543;89;21600;-78
2021/01/03 02:35:22;;;;;;;88.70;29.32;;;;;;;-0.46;87.74;101037.40;1559654;90;21317;-79
2021/01/03 02:37:52;;;;;;;89.97;28.90;;;;;;;-0.45;87.73;101034.05;1554166;92;21312;-79
2021/01/03 02:40:23;;;;;;;71.07;25.30;;;;;;;-0.46;87.70;101029.38;1632454;85;21243;-79
2021/01/03 02:42:50;;;;;;;105.43;31.37;;;;;;;-0.45;87.74;101035.31;1657422;85;21195;-79
2021/01/03 02:45:21;;;;;;;85.47;28.67;;;;;;;-0.46;87.71;101042.07;1657821;86;21207;-79
2021/01/03 02:47:49;;;;;;;89.35;30.25;;;;;;;-0.45;87.72;101049.28;1656527;85;21224;-78
2021/01/03 02:50:24;;;;;;;89.50;29.02;;;;;;;-0.45;87.75;101037.45;1657310;86;21227;-78
2021/01/03 02:52:50;;;;;;;75.83;24.92;;;;;;;-0.44;87.73;101029.42;1657845;85;21256;-77
2021/01/03 02:55:20;;;;;;;79.72;27.35;;;;;;;-0.42;87.75;101036.69;1657903;85;21248;-77
2021/01/03 02:57:47;;;;;;;70.35;24.10;;;;;;;-0.41;87.77;101043.09;1659328;86;21152;-78
2021/01/03 03:00:24;;;;;;;78.25;26.33;;;;;;;-0.39;87.74;101048.23;1657458;85;21287;-78
2021/01/03 03:02:50;;;;;;;88.17;27.70;;;;;;;-0.42;87.72;101035.42;1657578;86;21242;-78
2021/01/03 03:05:21;;;;;;;79.15;24.12;;;;;;;-0.41;87.77;101033.34;1658421;85;21190;-78
2021/01/03 03:07:48;;;;;;;87.42;29.02;;;;;;;-0.39;87.76;101036.80;1657645;85;21250;-78
2021/01/03 03:10:16;;;;;;;96.55;31.33;;;;;;;-0.39;87.75;101035.53;1657952;85;21255;-78
2021/01/03 03:12:42;;;;;;;91.15;29.00;;;;;;;-0.40;87.76;101030.86;1659622;85;21944;-78
2021/01/03 03:15:13;;;;;;;105.83;31.93;;;;;;;-0.37;87.78;101028.83;1656683;86;21138;-78
2021/01/03 03:17:39;;;;;;;84.95;26.97;;;;;;;-0.37;87.78;101031.37;1658397;85;21255;-78
2021/01/03 03:20:07;;;;;;;99.37;30.00;;;;;;;-0.37;87.78;101031.37;1656538;85;21200;-78
2021/01/03 03:22:33;;;;;;;91.55;28.32;;;;;;;-0.37;87.74;101030.97;1647114;85;411986;-78
2021/01/03 03:24:59;;;;;;;93.50;28.12;;;;;;;-0.37;87.74;101038.58;1657425;85;20994;-78
2021/01/03 03:27:27;;;;;;;94.25;29.37;;;;;;;-0.37;87.75;101032.64;1658099;85;21688;-78
2021/01/03 03:29:53;;;;;;;89.30;27.80;;;;;;;-0.38;87.77;101032.18;1656907;85;21239;-78
2021/01/03 03:32:19;;;;;;;90.70;27.33;;;;;;;-0.36;87.81;101033.97;1658027;86;21745;-78
2021/01/03 03:34:45;;;;;;;103.30;30.07;;;;;;;-0.36;87.76;101033.97;1657892;85;21694;-78
2021/01/03 03:37:11;;;;;;;81.42;25.30;;;;;;;-0.37;87.75;101032.23;1658100;85;21660;-78
2021/01/03 03:39:37;;;;;;;85.70;24.77;;;;;;;-0.37;87.79;101030.97;1657739;86;21216;-78
2021/01/03 03:42:08;;;;;;;92.78;27.62;;;;;;;-0.37;87.81;101033.50;1657338;85;22201;-78
2021/01/03 03:44:34;;;;;;;87.90;26.90;;;;;;;-0.36;87.78;101027.61;1659616;86;21119;-78
2021/01/03 03:47:03;;;;;;;97.35;27.95;;;;;;;-0.36;87.82;101022.53;1658778;86;21266;-78
2021/01/03 03:49:31;;;;;;;89.90;27.13;;;;;;;-0.33;87.84;101034.48;1658869;85;21542;-78
2021/01/03 03:52:04;;;;;;;78.52;26.20;;;;;;;-0.30;87.82;101029.91;1659011;85;21484;-78
2021/01/03 03:54:34;;;;;;;75.50;24.92;;;;;;;-0.30;87.84;101029.91;1658321;86;21214;-78
2021/01/03 03:57:05;;;;;;;86.75;27.15;;;;;;;-0.28;87.84;101020.25;1659561;85;21039;-78
2021/01/03 03:59:31;;;;;;;95.03;29.72;;;;;;;-0.27;87.76;101024.93;1658752;85;21156;-77
2021/01/03 04:02:01;;;;;;;71.87;23.38;;;;;;;-0.30;87.75;101009.17;1637124;86;21677;-78
2021/01/03 04:04:27;;;;;;;93.97;30.15;;;;;;;-0.30;87.79;101000.69;1627724;88;21180;-78
2021/01/03 04:06:54;;;;;;;108.17;31.33;;;;;;;-0.30;87.79;100999.02;1602121;88;21832;-78
2021/01/03 04:09:21;;;;;;;89.03;28.42;;;;;;;-0.30;87.78;100995.60;1620509;86;21269;-78
2021/01/03 04:11:48;;;;;;;;;;;;;;;-0.29;87.81;100995.66;1607577;88;21273;-78
2021/01/03 04:14:19;;;;;;;107.85;30.40;;;;;;;-0.27;87.84;100996.98;1625774;86;20347;-78
2021/01/03 04:16:51;;;;;;;79.00;25.57;;;;;;;-0.28;87.79;100984.69;1632909;86;21246;-78
2021/01/03 04:19:18;;;;;;;85.50;26.12;;;;;;;-0.27;87.79;100971.57;1643909;86;21165;-78
2021/01/03 04:21:53;;;;;;;;;;;;;;;-0.28;87.79;100971.98;1628721;86;21193;-78
2021/01/03 04:24:20;;;;;;;74.25;22.85;;;;;;;-0.28;87.81;100971.98;1626925;86;20887;-78
2021/01/03 04:26:50;;;;;;;;;;;;;;;-0.29;87.80;100974.06;1630499;88;21574;-78
2021/01/03 04:29:17;;;;;;;88.20;25.62;;;;;;;-0.29;87.84;100969.39;1616203;86;21238;-78
2021/01/03 04:31:43;;;;;;;97.70;27.87;;;;;;;-0.28;87.87;100973.25;1611343;86;28163;-78
2021/01/03 04:34:09;;;;;;;104.17;30.97;;;;;;;-0.28;87.81;100988.49;1639792;86;21038;-78
2021/01/03 04:36:36;;;;;;;99.20;31.23;;;;;;;-0.28;87.81;100982.55;1628052;88;21173;-78
2021/01/03 04:39:04;;;;;;;90.00;28.15;;;;;;;-0.28;87.87;100987.22;1627715;86;21585;-78
2021/01/03 04:41:37;;;;;;;84.17;24.50;;;;;;;-0.26;87.87;100982.19;1624540;86;21438;-78
2021/01/03 04:44:08;;;;;;;100.62;28.80;;;;;;;-0.25;87.86;100993.67;1626436;88;21166;-77
2021/01/03 04:46:39;;;;;;;108.78;32.23;;;;;;;-0.25;87.86;100986.46;1606272;88;21193;-77
2021/01/03 04:49:22;;;;;;;113.68;29.95;;;;;;;-0.25;87.85;100991.14;1627745;86;21164;-78
2021/01/03 04:52:12;;;;;;;74.72;24.20;;;;;;;-0.23;87.87;100995.87;1627101;88;21149;-78
2021/01/03 04:54:47;;;;;;;111.50;33.55;;;;;;;-0.23;87.89;100986.11;1601630;86;22244;-78
2021/01/03 04:57:17;;;;;;;66.30;21.52;;;;;;;-0.25;87.84;100992.41;1624870;86;21193;-78
2021/01/03 04:59:50;;;;;;;97.25;30.95;;;;;;;-0.25;87.86;100994.08;1638161;86;21209;-78
2021/01/03 05:02:46;;;;;;;96.30;29.30;;;;;;;-0.26;87.85;100980.92;1654471;86;21137;-78
2021/01/03 05:05:35;;;;;;;93.30;28.25;;;;;;;-0.25;87.90;100993.67;1654187;86;21140;-78
2021/01/03 05:08:31;;;;;;;82.82;23.50;;;;;;;-0.25;87.94;100994.95;1607259;86;21188;-78
2021/01/03 05:11:05;;;;;;;89.07;27.48;;;;;;;-0.22;87.93;100998.00;1603003;86;21169;-78
2021/01/03 05:14:05;;;;;;;101.33;27.85;;;;;;;-0.23;87.93;100999.67;1606404;88;21166;-77
2021/01/03 05:16:32;;;;;;;102.22;29.87;;;;;;;-0.25;87.92;101006.38;1623328;88;21192;-77
2021/01/03 05:18:58;;;;;;;106.87;30.62;;;;;;;-0.23;87.95;101001.35;1628077;86;21682;-77
2021/01/03 05:21:24;;;;;;;89.85;26.27;;;;;;;-0.21;87.99;101005.67;1620560;86;21197;-77
2021/01/03 05:24:02;;;;;;;89.65;24.92;;;;;;;-0.22;87.97;101002.67;1614204;88;21058;-78
2021/01/03 05:26:36;;;;;;;92.25;28.20;;;;;;;-0.22;87.98;101001.41;1627830;88;21606;-78
2021/01/03 05:29:05;;;;;;;86.50;24.70;;;;;;;-0.21;87.98;101004.81;1627325;86;21181;-78
2021/01/03 05:31:33;;;;;;;88.47;27.00;;;;;;;-0.23;87.97;101004.76;1626689;86;21149;-78
2021/01/03 05:34:08;;;;;;;102.58;29.57;;;;;;;-0.23;87.99;101002.22;1625691;86;21252;-78
2021/01/03 05:36:44;;;;;;;92.80;27.57;;;;;;;-0.22;87.99;101000.55;1601077;86;21240;-78
2021/01/03 05:39:21;;;;;;;88.40;24.65;;;;;;;-0.23;87.98;101007.70;1617103;86;21269;-77
2021/01/03 05:41:58;;;;;;;89.20;27.60;;;;;;;-0.23;88.04;101006.03;1651911;86;21241;-78
2021/01/03 05:44:32;;;;;;;91.12;27.87;;;;;;;-0.21;88.06;101008.22;1652823;86;21229;-78
2021/01/03 05:47:12;;;;;;;86.05;26.68;;;;;;;-0.22;88.04;101002.67;1627944;86;22312;-78
2021/01/03 05:49:39;;;;;;;83.25;26.17;;;;;;;-0.22;88.03;101005.63;1594631;86;21245;-78
2021/01/03 05:52:19;;;;;;;96.85;29.00;;;;;;;-0.24;88.06;100999.22;1621581;86;28353;-78
2021/01/03 05:54:47;;;;;;;91.75;27.85;;;;;;;-0.22;88.05;100991.64;1615017;86;21228;-78
2021/01/03 05:57:35;;;;;;;79.65;25.23;;;;;;;-0.23;88.00;100998.81;1593906;86;451676;-78
2021/01/03 06:00:25;;;;;;;71.02;24.63;;;;;;;-0.26;88.01;100991.95;1616420;88;21677;-79
2021/01/03 06:02:55;;;;;;;83.80;27.25;;;;;;;-0.27;88.02;100983.87;1653765;84;21244;-77
2021/01/03 06:05:25;;;;;;;84.10;25.85;;;;;;;-0.27;88.07;100976.66;1671288;85;21528;-78
2021/01/03 06:08:25;;;;;;;76.55;26.50;;;;;;;-0.27;88.08;100977.52;1673903;84;21231;-78
2021/01/03 06:10:51;;;;;;;89.85;27.42;;;;;;;-0.27;88.10;100981.73;1646708;84;22172;-78
2021/01/03 06:13:21;;;;;;;;;;;;;;;-0.27;88.07;100970.30;1674217;84;21475;-79
2021/01/03 06:15:54;;;;;;;81.75;22.82;;;;;;;-0.28;88.12;100973.25;1677412;84;20304;-79
2021/01/03 06:18:43;;;;;;;65.50;22.65;;;;;;;-0.27;88.13;100974.11;1674758;85;21515;-78
2021/01/03 06:21:33;;;;;;;58.08;21.02;;;;;;;-0.28;88.13;100974.52;1660135;84;22163;-78
2021/01/03 06:24:10;;;;;;;72.27;24.50;;;;;;;-0.29;88.11;100971.92;1674027;85;21248;-78
2021/01/03 06:26:44;;;;;;;71.95;23.57;;;;;;;-0.28;88.16;100971.98;1674170;85;21192;-78
2021/01/03 06:29:49;;;;;;;86.25;26.90;;;;;;;-0.28;88.15;100969.44;1673428;84;21243;-78
2021/01/03 06:32:43;;;;;;;61.00;19.12;;;;;;;-0.26;88.19;100969.48;1673927;84;21225;-76
2021/01/03 06:35:31;;;;;;;65.03;21.82;;;;;;;-0.24;88.20;100967.45;1673991;85;21215;-78
2021/01/03 06:38:05;;;;;;;69.50;23.07;;;;;;;-0.24;88.19;100973.81;1674002;85;21208;-78
2021/01/03 06:40:53;;;;;;;63.55;21.52;;;;;;;-0.25;88.17;100958.11;1627677;85;22318;-77
2021/01/03 06:44:04;;;;;;;63.23;21.93;;;;;;;-0.25;88.15;100962.33;1673559;85;21233;-79
2021/01/03 06:47:06;;;;;;;64.97;23.50;;;;;;;-0.25;88.17;100963.19;1673809;84;21705;-77
2021/01/03 06:49:37;;;;;;;55.03;19.95;;;;;;;-0.24;88.21;100961.10;1673227;85;21216;-78
2021/01/03 06:52:27;;;;;;;71.65;24.60;;;;;;;-0.25;88.16;100968.67;1669965;85;21737;-78
2021/01/03 06:55:24;;;;;;;61.85;22.82;;;;;;;-0.25;88.17;100960.64;1673790;84;21643;-77
2021/01/03 06:58:40;;;;;;;65.72;20.27;;;;;;;-0.24;88.17;100967.45;1673731;85;21204;-79
2021/01/03 07:01:37;;;;;;;60.58;21.35;;;;;;;-0.25;88.18;100964.45;1635833;86;21253;-78
2021/01/03 07:04:26;;;;;;;50.83;19.75;;;;;;;-0.25;88.19;100962.33;1637459;86;21725;-78
2021/01/03 07:06:54;;;;;;;56.08;19.77;;;;;;;-0.23;88.22;100965.78;1635453;87;21388;-78
2021/01/03 07:09:22;;;;;;;58.83;20.85;;;;;;;-0.21;88.19;100964.16;1635610;87;21364;-78
2021/01/03 07:11:59;;;;;;;47.50;17.48;;;;;;;-0.22;88.18;100960.75;1638155;86;22036;-78
2021/01/03 07:14:33;;;;;;;53.05;19.62;;;;;;;-0.21;88.25;100962.48;1638136;86;21228;-78
2021/01/03 07:17:07;;;;;;;54.20;21.35;;;;;;;-0.18;88.22;100962.98;1587992;88;21160;-78
2021/01/03 07:19:49;;;;;;;58.55;19.80;;;;;;;-0.18;88.23;100962.98;1591771;88;21256;-78
2021/01/03 07:22:36;;;;;;;57.75;21.30;;;;;;;-0.18;88.23;100956.22;1592706;89;22251;-78
2021/01/03 07:25:16;;;;;;;52.65;20.48;;;;;;;-0.17;88.20;100960.49;1589432;88;21760;-78
2021/01/03 07:28:05;;;;;;;49.20;19.37;;;;;;;-0.15;88.23;100960.55;1565082;89;21729;-78
2021/01/03 07:30:42;;;;;;;57.83;22.00;;;;;;;-0.15;88.23;100963.09;1591734;89;21377;-78
2021/01/03 07:33:17;;;;;;;45.95;18.42;;;;;;;-0.19;88.24;100954.91;1599712;88;21244;-78
2021/01/03 07:35:43;;;;;;;48.75;19.10;;;;;;;-0.14;88.21;100962.27;1597323;88;21292;-78
2021/01/03 07:38:30;;;;;;;;;;;;;;;-0.14;88.23;100964.41;1600090;88;21267;-79
2021/01/03 07:41:05;;;;;;;49.70;19.25;;;;;;;-0.13;88.24;100971.22;1597294;88;21132;-78
2021/01/03 07:43:49;;;;;;;51.88;20.75;;;;;;;-0.13;88.25;100962.32;1592180;89;21315;-78
2021/01/03 07:46:37;;;;;;;57.27;21.30;;;;;;;-0.13;88.26;100962.73;1525453;88;21280;-78
2021/01/03 07:49:24;;;;;;;42.33;15.13;;;;;;;-0.12;88.28;100957.70;1597760;88;21280;-78
2021/01/03 07:51:51;;;;;;;51.98;17.80;;;;;;;-0.10;88.26;100956.06;1568642;88;21312;-78
2021/01/03 07:54:17;;;;;;;53.60;19.02;;;;;;;-0.10;88.29;100956.47;1625449;85;21699;-79
2021/01/03 07:56:43;;;;;;;50.03;19.12;;;;;;;-0.10;88.27;100958.61;1673111;85;21200;-79
2021/01/03 07:59:09;;;;;;;48.42;18.87;;;;;;;-0.09;88.30;100962.02;1673667;85;21238;-79
2021/01/03 08:01:43;;;;;;;42.80;17.45;;;;;;;-0.08;88.29;100960.80;1673432;84;21196;-79
2021/01/03 08:04:18;;;;;;;47.95;18.90;;;;;;;-0.08;88.30;100955.71;1674940;85;21184;-79
2021/01/03 08:06:44;;;;;;;57.45;19.27;;;;;;;-0.07;88.33;100952.35;1671537;84;21144;-79
2021/01/03 08:09:10;;;;;;;30.10;13.72;;;;;;;-0.04;88.33;100963.89;1670878;85;21594;-79
2021/01/03 08:11:40;;;;;;;44.65;18.65;;;;;;;-0.03;88.33;100970.70;1674071;84;21157;-79
2021/01/03 08:14:17;;;;;;;33.63;15.00;;;;;;;-0.02;88.32;100967.34;1674863;84;21169;-79
2021/01/03 08:16:43;;;;;;;55.45;20.32;;;;;;;-0.02;88.32;100961.40;1673677;84;21150;-80
2021/01/03 08:19:10;;;;;;;45.48;18.80;;;;;;;-0.01;88.30;100963.13;1675430;85;28206;-79
2021/01/03 08:21:39;;;;;;;46.45;16.77;;;;;;;0.00;88.21;100958.50;1670565;85;21109;-79
2021/01/03 08:24:16;;;;;;;38.05;15.68;;;;;;;0.00;88.21;100958.50;1671228;84;21090;-80
2021/01/03 08:26:50;;;;;;;38.05;17.05;;;;;;;0.00;88.32;100958.50;1671969;84;21350;-79
2021/01/03 08:29:46;;;;;;;35.33;15.05;;;;;;;0.02;88.34;100959.79;1674240;85;21003;-79
2021/01/03 08:32:20;;;;;;;41.98;18.00;;;;;;;0.02;88.36;100961.92;1668663;85;21031;-79
2021/01/03 08:34:47;;;;;;;44.18;18.12;;;;;;;0.05;88.36;100969.65;1671741;84;21598;-79
2021/01/03 08:37:23;;;;;;;37.25;16.25;;;;;;;0.05;88.36;100973.45;1672393;85;21124;-79
2021/01/03 08:39:52;;;;;;;42.58;15.83;;;;;;;0.06;88.35;100968.83;1674694;84;21261;-79
2021/01/03 08:42:26;;;;;;;36.33;15.95;;;;;;;0.07;88.37;100975.64;1671560;85;21150;-79
2021/01/03 08:44:57;;;;;;;35.68;16.52;;;;;;;0.07;88.33;100974.38;1670062;85;21430;-79
2021/01/03 08:47:31;;;;;;;45.60;17.02;;;;;;;0.08;88.36;100970.16;1676766;84;21149;-79
2021/01/03 08:50:18;;;;;;;40.83;15.83;;;;;;;0.08;88.34;100973.56;1671521;85;21701;-79
2021/01/03 08:53:07;;;;;;;37.80;15.00;;;;;;;0.10;88.39;100973.61;1661251;85;21357;-79
2021/01/03 08:55:37;;;;;;;29.15;13.40;;;;;;;0.10;88.34;100974.47;1672319;84;21178;-79
2021/01/03 08:58:12;;;;;;;31.20;14.03;;;;;;;0.08;88.36;100968.48;1670839;85;21154;-79
2021/01/03 09:00:42;;;;;;;31.57;13.53;;;;;;;0.09;88.34;100970.61;1673297;84;21550;-80
2021/01/03 09:03:19;;;;;;;36.23;14.47;;;;;;;0.09;88.37;100965.12;1671611;85;21142;-79
2021/01/03 09:05:49;;;;;;;30.80;13.48;;;;;;;0.10;88.35;100970.66;1651398;84;21580;-79
2021/01/03 09:08:41;;;;;;;41.28;16.35;;;;;;;0.10;88.34;100962.16;1670177;85;21113;-79
2021/01/03 09:11:20;;;;;;;32.33;14.07;;;;;;;0.11;88.37;100967.71;1672429;84;21109;-79
2021/01/03 09:14:27;;;;;;;33.65;14.78;;;;;;;0.10;88.34;100969.80;1671501;84;21713;-79
2021/01/03 09:17:07;;;;;;;38.40;15.30;;;;;;;0.10;88.37;100966.84;1668740;84;21232;-78
2021/01/03 09:19:59;;;;;;;30.57;14.87;;;;;;;0.10;88.41;100969.39;1670794;84;21233;-79
2021/01/03 09:22:32;;;;;;;36.03;15.70;;;;;;;0.14;88.48;100975.03;1667274;84;21238;-81
2021/01/03 09:25:32;;;;;;;24.82;11.90;;;;;;;0.17;88.45;100980.21;1667884;84;21651;-80
2021/01/03 09:28:12;;;;;;;31.25;13.93;;;;;;;0.18;88.42;100975.98;1666449;84;21769;-79
2021/01/03 09:30:46;;;;;;;34.48;15.23;;;;;;;0.17;88.39;100976.80;1645896;85;22358;-79
2021/01/03 09:33:24;;;;;;;32.53;15.13;;;;;;;0.14;88.39;100974.16;1664894;84;21884;-79
2021/01/03 09:36:07;;;;;;;32.53;15.28;;;;;;;0.17;88.43;100978.08;1663629;84;21187;-79
2021/01/03 09:38:45;;;;;;;33.35;15.63;;;;;;;0.16;88.43;100968.31;1667879;84;21172;-79
2021/01/03 09:41:47;;;;;;;22.77;11.73;;;;;;;0.18;88.47;100967.95;1671284;84;21158;-79
2021/01/03 09:44:44;;;;;;;29.10;13.48;;;;;;;0.19;88.46;100980.26;1665733;85;21516;-79
2021/01/03 09:47:15;;;;;;;37.23;16.12;;;;;;;0.18;88.45;100971.77;1671619;84;21162;-79
2021/01/03 09:49:51;;;;;;;35.45;15.78;;;;;;;0.18;88.46;100967.95;1674047;84;21160;-80
2021/01/03 09:52:37;;;;;;;34.60;15.03;;;;;;;0.19;88.48;100962.46;1671763;85;21150;-78
2021/01/03 09:55:06;;;;;;;;;;;;;;;0.20;88.50;100966.73;1669916;84;21137;-80
2021/01/03 09:57:55;;;;;;;29.60;13.05;;;;;;;0.19;88.49;100969.68;1668319;85;20303;-79
2021/01/03 10:00:43;;;;;;;25.68;12.55;;;;;;;0.20;88.52;100966.33;1670764;85;21252;-80
2021/01/03 10:03:41;;;;;;;35.08;14.68;;;;;;;0.19;88.56;100967.14;1667789;84;21208;-80
2021/01/03 10:06:24;;;;;;;30.50;13.72;;;;;;;0.17;88.54;100975.53;1662015;84;22284;-80
2021/01/03 10:09:11;;;;;;;27.80;13.80;;;;;;;0.15;88.53;100972.08;1660570;84;21264;-80
2021/01/03 10:11:40;;;;;;;39.23;15.88;;;;;;;0.15;88.58;100968.27;1666253;84;21673;-81
2021/01/03 10:14:11;;;;;;;35.83;15.30;;;;;;;0.13;88.59;100968.22;1664002;85;21145;-80
2021/01/03 10:16:41;;;;;;;37.78;16.20;;;;;;;0.12;88.62;100970.70;1665367;84;21487;-80
2021/01/03 10:19:21;;;;;;;33.18;14.05;;;;;;;0.14;88.65;100970.35;1665829;85;21145;-80
2021/01/03 10:21:49;;;;;;;29.20;13.05;;;;;;;0.15;88.67;100968.27;1658704;85;21121;-80
2021/01/03 10:24:20;;;;;;;30.15;14.15;;;;;;;0.14;88.66;100974.16;1665241;84;21134;-80
2021/01/03 10:26:51;;;;;;;35.95;14.58;;;;;;;0.14;88.67;100975.03;1662439;85;21615;-80
2021/01/03 10:29:20;;;;;;;30.52;14.05;;;;;;;0.15;88.69;100969.53;1663391;84;21117;-80
2021/01/03 10:31:51;;;;;;;35.45;15.15;;;;;;;0.17;88.74;100975.53;1662003;85;21200;-80
2021/01/03 10:34:21;;;;;;;35.05;15.03;;;;;;;0.17;88.68;100977.67;1664917;85;21129;-80
2021/01/03 10:36:53;;;;;;;32.80;14.25;;;;;;;0.18;88.69;100978.53;1665441;84;21177;-80
2021/01/03 10:39:19;;;;;;;44.40;17.90;;;;;;;0.17;88.69;100974.27;1667612;85;21425;-80
2021/01/03 10:41:48;;;;;;;37.50;16.10;;;;;;;0.18;88.74;100981.08;1668358;84;21066;-81
2021/01/03 10:44:17;;;;;;;41.90;17.87;;;;;;;0.19;88.74;100978.58;1664088;85;32791;-80
2021/01/03 10:46:49;;;;;;;49.88;20.48;;;;;;;0.19;88.76;100977.31;1661495;85;21240;-81
2021/01/03 10:49:17;;;;;;;43.95;19.05;;;;;;;0.22;88.72;100991.80;1665395;84;21527;-81
2021/01/03 10:51:47;;;;;;;33.70;16.27;;;;;;;0.21;88.74;100979.91;1666820;85;21187;-80
2021/01/03 10:54:20;;;;;;;40.20;15.65;;;;;;;0.20;88.72;100981.98;1663209;84;21252;-80
2021/01/03 10:56:54;;;;;;;35.00;17.05;;;;;;;0.23;88.79;100983.36;1658166;85;21220;-80
2021/01/03 10:59:22;;;;;;;35.45;17.25;;;;;;;0.24;88.80;100980.86;1650718;85;21305;-80
2021/01/03 11:01:49;;;;;;;34.27;17.12;;;;;;;0.25;88.75;100980.05;1664474;83;21658;-80
2021/01/03 11:04:21;;;;;;;33.00;15.70;;;;;;;0.24;88.75;100974.50;1681300;84;21197;-80
2021/01/03 11:06:52;;;;;;;34.65;13.95;;;;;;;0.24;88.75;100975.77;1678601;84;21237;-80
2021/01/03 11:09:23;;;;;;;24.00;11.70;;;;;;;0.24;88.73;100971.09;1682358;83;21224;-80
2021/01/03 11:11:51;;;;;;;33.05;15.38;;;;;;;0.23;88.76;100969.37;1683983;83;21217;-80
2021/01/03 11:14:17;;;;;;;39.18;18.20;;;;;;;0.23;88.73;100969.37;1685399;83;21197;-79
2021/01/03 11:16:46;;;;;;;37.55;18.37;;;;;;;0.21;88.73;100967.19;1681130;84;21216;-79
2021/01/03 11:19:15;;;;;;;34.25;15.65;;;;;;;0.20;88.77;100968.86;1677415;84;21233;-79
2021/01/03 11:21:42;;;;;;;28.80;13.80;;;;;;;0.22;88.81;100963.83;1684193;83;21201;-78
2021/01/03 11:24:10;;;;;;;32.40;15.00;;;;;;;0.22;88.80;100963.83;1686461;84;21196;-78
2021/01/03 11:26:41;;;;;;;30.95;13.83;;;;;;;0.19;88.77;100953.16;1677961;84;21196;-80
2021/01/03 11:29:12;;;;;;;38.40;16.60;;;;;;;0.17;88.77;100949.70;1682283;84;21521;-80
2021/01/03 11:31:53;;;;;;;34.15;16.27;;;;;;;0.19;88.80;100944.66;1686337;83;21679;-80
2021/01/03 11:34:22;;;;;;;58.83;26.15;;;;;;;0.20;88.81;100942.58;1681366;83;21749;-80
2021/01/03 11:36:53;;;;;;;41.85;21.07;;;;;;;0.20;88.85;100943.84;1688469;83;21917;-80
2021/01/03 11:39:21;;;;;;;31.82;15.05;;;;;;;0.21;88.83;100938.81;1680081;83;21214;-80
2021/01/03 11:41:51;;;;;;;33.90;15.13;;;;;;;0.21;88.86;100933.72;1684348;83;21204;-79
2021/01/03 11:44:20;;;;;;;37.50;18.12;;;;;;;0.23;88.83;100937.58;1686616;83;21162;-79